createdAt,value
2022-09-18T00:01:17.326Z,1.30
2022-09-18T00:04:21.743Z,1.10
2022-09-18T00:07:24.822Z,1.23
2022-09-18T00:10:27.963Z,0.83
2022-09-18T00:13:31.078Z,1.23
2022-09-18T00:16:34.557Z,1.50
2022-09-18T00:19:39.016Z,1.20
2022-09-18T00:22:42.098Z,1.20
2022-09-18T00:25:45.153Z,1.40
2022-09-18T00:28:48.207Z,1.40
2022-09-18T00:31:51.369Z,1.60
2022-09-18T00:34:55.897Z,1.63
2022-09-18T00:37:59.463Z,1.70
2022-09-18T00:41:03.964Z,1.43
2022-09-18T00:44:31.115Z,1.53
2022-09-18T00:47:39.333Z,1.40
2022-09-18T00:50:43.804Z,1.50
2022-09-18T00:53:55.622Z,1.60
2022-09-18T00:57:02.779Z,1.93
2022-09-18T01:00:12.204Z,1.70
2022-09-18T01:03:15.275Z,1.30
2022-09-18T01:06:30.279Z,1.43
2022-09-18T01:09:41.852Z,1.70
2022-09-18T01:12:53.301Z,1.87
2022-09-18T01:16:03.241Z,1.43
2022-09-18T01:19:16.870Z,1.80
2022-09-18T01:22:33.118Z,1.40
2022-09-18T01:25:51.358Z,1.77
2022-09-18T01:29:00.074Z,1.40
2022-09-18T01:32:07.980Z,1.27
2022-09-18T01:35:40.000Z,1.93
2022-09-18T01:38:46.626Z,1.47
2022-09-18T01:41:52.012Z,1.40
2022-09-18T01:45:00.396Z,1.50
2022-09-18T01:48:07.814Z,1.47
2022-09-18T01:51:15.398Z,1.83
2022-09-18T01:54:22.807Z,1.27
2022-09-18T01:57:29.230Z,1.13
2022-09-18T02:00:34.365Z,1.23
2022-09-18T02:03:42.359Z,1.30
2022-09-18T02:06:53.332Z,1.20
2022-09-18T02:09:58.419Z,2.33
2022-09-18T02:13:03.899Z,2.40
2022-09-18T02:16:13.459Z,1.80
2022-09-18T02:19:19.374Z,2.00
2022-09-18T02:22:25.471Z,1.60
2022-09-18T02:25:32.384Z,1.60
2022-09-18T02:28:38.062Z,2.10
2022-09-18T02:31:42.789Z,1.90
2022-09-18T02:34:46.085Z,1.60
2022-09-18T02:37:58.574Z,1.67
2022-09-18T02:41:08.683Z,1.50
2022-09-18T02:44:20.802Z,1.60
2022-09-18T02:47:35.496Z,1.53
2022-09-18T02:50:48.498Z,1.60
2022-09-18T02:53:58.313Z,2.10
2022-09-18T02:57:07.304Z,1.60
2022-09-18T03:00:17.002Z,1.67
2022-09-18T03:03:21.444Z,1.50
2022-09-18T03:06:24.516Z,1.50
2022-09-18T03:09:27.591Z,1.97
2022-09-18T03:12:30.690Z,1.90
2022-09-18T03:15:33.785Z,2.37
2022-09-18T03:18:38.251Z,1.70
2022-09-18T03:21:41.448Z,1.37
2022-09-18T03:24:44.542Z,1.57
2022-09-18T03:27:47.626Z,1.50
2022-09-18T03:30:51.008Z,1.30
2022-09-18T03:33:55.453Z,1.03
2022-09-18T03:36:58.540Z,1.13
2022-09-18T03:40:01.686Z,1.30
2022-09-18T03:43:04.950Z,1.20
2022-09-18T03:46:08.108Z,0.80
2022-09-18T03:49:12.570Z,1.33
2022-09-18T03:52:15.632Z,1.80
2022-09-18T03:55:18.836Z,1.30
2022-09-18T03:58:21.911Z,1.10
2022-09-18T04:01:25.347Z,1.30
2022-09-18T04:04:30.252Z,1.23
2022-09-18T04:07:33.339Z,1.20
2022-09-18T04:10:36.495Z,1.83
2022-09-18T04:13:39.552Z,1.50
2022-09-18T04:16:42.653Z,1.40
2022-09-18T04:19:50.172Z,1.83
2022-09-18T04:22:56.420Z,1.37
2022-09-18T04:25:59.481Z,1.70
2022-09-18T04:29:04.052Z,1.40
2022-09-18T04:32:07.695Z,1.20
2022-09-18T04:35:12.582Z,1.97
2022-09-18T04:38:15.687Z,1.60
2022-09-18T04:41:18.750Z,1.30
2022-09-18T04:44:22.038Z,1.73
2022-09-18T04:47:25.153Z,1.47
2022-09-18T04:50:29.578Z,1.40
2022-09-18T04:53:35.444Z,1.53
2022-09-18T04:56:38.551Z,1.57
2022-09-18T04:59:41.608Z,1.90
2022-09-18T05:02:44.715Z,1.20
2022-09-18T05:05:49.430Z,1.00
2022-09-18T05:08:52.489Z,1.10
2022-09-18T05:11:55.599Z,1.23
2022-09-18T05:14:58.664Z,1.60
2022-09-18T05:18:06.578Z,1.83
2022-09-18T05:21:13.686Z,1.63
2022-09-18T05:24:17.605Z,1.43
2022-09-18T05:27:23.538Z,1.23
2022-09-18T05:30:30.894Z,1.57
2022-09-18T05:33:34.198Z,1.43
2022-09-18T05:36:38.638Z,1.77
2022-09-18T05:39:42.299Z,1.60
2022-09-18T05:42:48.918Z,1.93
2022-09-18T05:45:51.967Z,1.53
2022-09-18T05:48:55.023Z,1.40
2022-09-18T05:51:59.470Z,1.77
2022-09-18T05:55:02.740Z,1.50
2022-09-18T05:58:07.655Z,1.53
2022-09-18T06:01:10.901Z,1.70
2022-09-18T06:04:14.022Z,1.63
2022-09-18T06:07:18.625Z,1.43
2022-09-18T06:10:23.131Z,1.63
2022-09-18T06:13:26.406Z,1.60
2022-09-18T06:16:29.653Z,2.23
2022-09-18T06:19:32.806Z,3.77
2022-09-18T06:22:37.744Z,3.27
2022-09-18T06:25:40.893Z,2.07
2022-09-18T06:28:44.077Z,1.70
2022-09-18T06:31:47.193Z,1.80
2022-09-18T06:34:50.297Z,1.80
2022-09-18T06:37:54.779Z,1.77
2022-09-18T06:40:57.842Z,2.60
2022-09-18T06:44:00.932Z,1.40
2022-09-18T06:47:04.186Z,1.50
2022-09-18T06:50:08.194Z,1.50
2022-09-18T06:53:12.978Z,1.40
2022-09-18T06:56:16.105Z,1.47
2022-09-18T06:59:19.284Z,1.87
2022-09-18T07:02:22.416Z,1.27
2022-09-18T07:05:26.890Z,1.73
2022-09-18T07:08:31.665Z,1.57
2022-09-18T07:11:36.364Z,1.67
2022-09-18T07:14:39.435Z,2.13
2022-09-18T07:17:42.539Z,1.40
2022-09-18T07:20:45.692Z,1.70
2022-09-18T07:23:50.096Z,2.40
2022-09-18T07:26:53.194Z,1.47
2022-09-18T07:29:57.137Z,1.30
2022-09-18T07:33:00.239Z,1.53
2022-09-18T07:36:04.167Z,1.40
2022-09-18T07:39:08.625Z,1.40
2022-09-18T07:42:12.027Z,1.40
2022-09-18T07:45:15.126Z,1.53
2022-09-18T07:48:18.325Z,1.33
2022-09-18T07:51:25.548Z,2.00
2022-09-18T07:54:31.130Z,1.50
2022-09-18T07:57:34.218Z,1.67
2022-09-18T08:00:38.255Z,1.50
2022-09-18T08:03:41.681Z,1.63
2022-09-18T08:06:46.138Z,1.53
2022-09-18T08:09:50.565Z,1.63
2022-09-18T08:12:55.201Z,1.23
2022-09-18T08:15:58.398Z,1.17
2022-09-18T08:19:01.540Z,1.50
2022-09-18T08:22:06.298Z,1.50
2022-09-18T08:25:12.130Z,1.50
2022-09-18T08:28:15.206Z,1.33
2022-09-18T08:31:18.324Z,1.93
2022-09-18T08:34:21.446Z,1.50
2022-09-18T08:37:24.591Z,1.83
2022-09-18T08:40:58.995Z,1.57
2022-09-18T08:44:07.961Z,1.90
2022-09-18T08:47:17.340Z,0.70
2022-09-18T08:50:24.945Z,1.10
2022-09-18T08:53:35.089Z,0.70
2022-09-18T08:56:40.920Z,0.68
2022-09-18T08:59:47.751Z,0.75
2022-09-18T09:02:52.471Z,0.63
2022-09-18T09:05:59.361Z,0.90
2022-09-18T09:09:21.409Z,0.40
2022-09-18T09:12:36.509Z,0.70
2022-09-18T09:15:47.257Z,0.68
2022-09-18T09:19:00.349Z,0.55
2022-09-18T09:22:09.791Z,0.80
2022-09-18T09:25:22.048Z,0.57
2022-09-18T09:28:32.368Z,0.50
2022-09-18T09:31:39.312Z,0.30
2022-09-18T09:34:47.952Z,0.45
2022-09-18T09:37:52.397Z,0.50
2022-09-18T09:40:58.035Z,0.40
2022-09-18T09:44:15.808Z,0.40
2022-09-18T09:47:30.420Z,0.40
2022-09-18T09:50:46.090Z,0.30
2022-09-18T09:53:49.594Z,0.40
2022-09-18T09:57:01.189Z,0.30
2022-09-18T10:00:14.616Z,0.32
2022-09-18T10:03:35.924Z,0.57
2022-09-18T10:06:48.426Z,0.40
2022-09-18T10:09:56.729Z,0.40
2022-09-18T10:13:04.853Z,0.30
2022-09-18T10:16:17.545Z,0.30
2022-09-18T10:19:22.824Z,0.40
2022-09-18T10:22:27.415Z,0.40
2022-09-18T10:25:37.145Z,0.40
2022-09-18T10:28:40.242Z,0.30
2022-09-18T10:31:52.586Z,0.50
2022-09-18T10:34:55.725Z,0.40
2022-09-18T10:37:59.709Z,0.47
2022-09-18T10:41:33.948Z,0.40
2022-09-18T10:44:38.689Z,0.30
2022-09-18T10:47:43.593Z,0.33
2022-09-18T10:50:54.245Z,0.40
2022-09-18T10:54:05.882Z,0.40
2022-09-18T10:57:28.238Z,0.30
2022-09-18T11:00:38.777Z,0.30
2022-09-18T11:03:46.316Z,0.40
2022-09-18T11:06:49.471Z,0.47
2022-09-18T11:09:52.772Z,0.33
2022-09-18T11:12:57.802Z,0.30
2022-09-18T11:16:03.638Z,0.40
2022-09-18T11:19:24.512Z,0.20
2022-09-18T11:22:36.510Z,0.40
2022-09-18T11:25:39.602Z,0.40
2022-09-18T11:28:42.712Z,0.27
2022-09-18T11:31:51.090Z,0.40
2022-09-18T11:34:58.570Z,0.40
2022-09-18T11:38:07.787Z,0.50
2022-09-18T11:41:13.140Z,0.70
2022-09-18T11:44:20.125Z,0.70
2022-09-18T11:47:42.621Z,0.50
2022-09-18T11:50:47.825Z,0.60
2022-09-18T11:53:56.225Z,0.50
2022-09-18T11:57:02.972Z,0.50
2022-09-18T12:00:09.626Z,0.30
2022-09-18T12:03:19.932Z,0.80
2022-09-18T12:06:30.342Z,0.50
2022-09-18T12:09:39.577Z,0.40
2022-09-18T12:12:47.455Z,0.40
2022-09-18T12:15:57.981Z,0.50
2022-09-18T12:19:05.300Z,0.60
2022-09-18T12:22:16.561Z,0.47
2022-09-18T12:25:22.006Z,0.30
2022-09-18T12:28:32.659Z,0.30
2022-09-18T12:31:43.650Z,0.40
2022-09-18T12:34:55.673Z,0.40
2022-09-18T12:38:10.688Z,0.50
2022-09-18T12:41:27.140Z,0.53
2022-09-18T12:45:06.039Z,0.50
2022-09-18T12:48:25.573Z,0.37
2022-09-18T12:51:43.158Z,0.50
2022-09-18T12:55:17.903Z,0.57
2022-09-18T12:58:38.740Z,0.60
2022-09-18T13:01:47.750Z,0.40
2022-09-18T13:04:56.019Z,0.50
2022-09-18T13:08:06.650Z,0.40
2022-09-18T13:11:18.093Z,0.40
2022-09-18T13:14:26.926Z,0.40
2022-09-18T13:17:35.114Z,0.40
2022-09-18T13:20:42.786Z,0.57
2022-09-18T13:23:47.584Z,0.60
2022-09-18T13:26:53.269Z,0.70
2022-09-18T13:29:59.208Z,0.40
2022-09-18T13:33:03.479Z,0.50
2022-09-18T13:36:07.209Z,0.40
2022-09-18T13:39:19.966Z,0.57
2022-09-18T13:42:33.052Z,0.60
2022-09-18T13:45:39.689Z,0.50
2022-09-18T13:48:46.542Z,0.77
2022-09-18T13:51:50.902Z,0.60
2022-09-18T13:55:25.382Z,0.40
2022-09-18T13:58:54.629Z,0.70
2022-09-18T14:02:02.534Z,0.67
2022-09-18T14:05:29.647Z,0.70
2022-09-18T14:08:39.520Z,0.57
2022-09-18T14:11:42.619Z,0.60
2022-09-18T14:15:02.826Z,0.63
2022-09-18T14:18:14.564Z,0.70
2022-09-18T14:21:25.334Z,1.03
2022-09-18T14:24:55.186Z,0.63
2022-09-18T14:28:03.287Z,0.90
2022-09-18T14:31:22.644Z,0.73
2022-09-18T14:34:31.360Z,0.60
2022-09-18T14:37:37.667Z,0.40
2022-09-18T14:40:41.460Z,0.47
2022-09-18T14:43:49.647Z,0.40
2022-09-18T14:46:55.746Z,0.50
2022-09-18T14:49:58.859Z,0.40
2022-09-18T14:53:03.795Z,0.40
2022-09-18T14:56:08.944Z,0.40
2022-09-18T14:59:17.946Z,0.50
2022-09-18T15:02:29.258Z,0.60
2022-09-18T15:05:33.061Z,0.50
2022-09-18T15:08:37.735Z,0.50
2022-09-18T15:12:01.269Z,0.50
2022-09-18T15:15:30.977Z,0.37
2022-09-18T15:18:43.251Z,0.40
2022-09-18T15:21:49.341Z,0.40
2022-09-18T15:24:52.817Z,0.87
2022-09-18T15:27:58.129Z,0.53
2022-09-18T15:31:04.898Z,0.60
2022-09-18T15:34:16.490Z,0.37
2022-09-18T15:37:22.092Z,0.40
2022-09-18T15:40:30.266Z,0.50
2022-09-18T15:43:43.503Z,0.30
2022-09-18T15:46:46.679Z,0.50
2022-09-18T15:49:51.665Z,0.40
2022-09-18T15:53:05.928Z,0.40
2022-09-18T15:56:20.052Z,1.07
2022-09-18T15:59:30.370Z,0.40
2022-09-18T16:02:37.592Z,0.47
2022-09-18T16:05:53.495Z,0.60
2022-09-18T16:08:57.924Z,0.50
2022-09-18T16:12:01.337Z,0.30
2022-09-18T16:15:18.034Z,0.30
2022-09-18T16:18:25.792Z,0.20
2022-09-18T16:21:30.678Z,0.30
2022-09-18T16:24:33.866Z,0.30
2022-09-18T16:27:36.955Z,0.20
2022-09-18T16:30:40.029Z,0.27
2022-09-18T16:33:57.254Z,0.30
2022-09-18T16:37:02.033Z,0.30
2022-09-18T16:40:05.663Z,0.40
2022-09-18T16:43:10.757Z,0.30
2022-09-18T16:46:15.847Z,0.40
2022-09-18T16:49:22.166Z,0.50
2022-09-18T16:52:26.734Z,1.07
2022-09-18T16:55:31.363Z,1.00
2022-09-18T16:58:36.593Z,0.70
2022-09-18T17:02:00.523Z,0.80
2022-09-18T17:05:05.568Z,1.30
2022-09-18T17:08:10.459Z,0.87
2022-09-18T17:11:14.310Z,0.60
2022-09-18T17:14:17.668Z,0.50
2022-09-18T17:17:21.346Z,0.60
2022-09-18T17:20:24.916Z,0.60
2022-09-18T17:23:30.601Z,0.73
2022-09-18T17:26:35.811Z,0.47
2022-09-18T17:29:40.278Z,0.50
2022-09-18T17:32:43.717Z,0.40
2022-09-18T17:35:47.744Z,0.50
2022-09-18T17:38:52.792Z,0.40
2022-09-18T17:41:57.567Z,0.97
2022-09-18T17:45:01.166Z,0.77
2022-09-18T17:48:04.770Z,1.00
2022-09-18T17:51:12.487Z,1.20
2022-09-18T17:54:17.534Z,1.40
2022-09-18T17:57:21.129Z,1.97
2022-09-18T18:00:25.261Z,1.73
2022-09-18T18:03:29.629Z,1.80
2022-09-18T18:06:33.121Z,1.60
2022-09-18T18:09:38.743Z,1.27
2022-09-18T18:12:41.996Z,1.43
2022-09-18T18:15:45.471Z,2.43
2022-09-18T18:18:48.732Z,1.80
2022-09-18T18:21:52.265Z,2.30
2022-09-18T18:24:56.838Z,1.60
2022-09-18T18:28:00.280Z,1.17
2022-09-18T18:31:07.478Z,1.17
2022-09-18T18:34:12.103Z,1.13
2022-09-18T18:37:15.649Z,1.87
2022-09-18T18:40:22.240Z,1.70
2022-09-18T18:43:25.733Z,1.90
2022-09-18T18:46:36.672Z,1.97
2022-09-18T18:49:40.583Z,2.20
2022-09-18T18:52:43.946Z,1.50
2022-09-18T18:55:49.584Z,1.53
2022-09-18T18:58:57.893Z,1.90
2022-09-18T19:02:02.623Z,2.03
2022-09-18T19:05:07.082Z,3.37
2022-09-18T19:08:10.285Z,3.10
2022-09-18T19:11:16.605Z,2.47
2022-09-18T19:14:22.155Z,2.90
2022-09-18T19:17:27.123Z,2.80
2022-09-18T19:20:30.649Z,3.10
2022-09-18T19:23:34.226Z,3.33
2022-09-18T19:26:40.412Z,3.00
2022-09-18T19:29:43.798Z,2.67
2022-09-18T19:32:47.413Z,2.83
2022-09-18T19:35:50.966Z,3.73
2022-09-18T19:38:54.675Z,3.90
2022-09-18T19:42:03.297Z,3.50
2022-09-18T19:45:07.460Z,3.10
2022-09-18T19:48:19.319Z,3.00
2022-09-18T19:51:22.773Z,3.07
2022-09-18T19:54:26.056Z,2.93
2022-09-18T19:57:30.900Z,2.50
2022-09-18T20:00:34.438Z,2.40
2022-09-18T20:03:37.847Z,2.67
2022-09-18T20:06:42.853Z,2.10
2022-09-18T20:09:45.991Z,2.67
2022-09-18T20:12:52.850Z,2.50
2022-09-18T20:16:00.894Z,2.57
2022-09-18T20:19:06.508Z,2.40
2022-09-18T20:22:09.605Z,1.73
2022-09-18T20:25:13.326Z,2.20
2022-09-18T20:28:17.792Z,2.47
2022-09-18T20:31:23.498Z,2.40
2022-09-18T20:34:26.854Z,2.07
2022-09-18T20:37:33.045Z,2.90
2022-09-18T20:40:38.467Z,2.70
2022-09-18T20:43:44.259Z,3.13
2022-09-18T20:46:47.508Z,2.40
2022-09-18T20:49:52.183Z,3.00
2022-09-18T20:52:55.379Z,2.13
2022-09-18T20:55:59.553Z,1.70
2022-09-18T20:59:05.072Z,2.27
2022-09-18T21:02:08.868Z,1.47
2022-09-18T21:05:14.709Z,1.47
2022-09-18T21:08:17.823Z,1.73
2022-09-18T21:11:23.355Z,1.47
2022-09-18T21:14:27.788Z,1.30
2022-09-18T21:17:31.596Z,1.80
2022-09-18T21:20:34.684Z,1.70
2022-09-18T21:23:58.487Z,1.43
2022-09-18T21:27:01.582Z,1.50
2022-09-18T21:30:07.828Z,1.50
2022-09-18T21:33:14.152Z,2.30
2022-09-18T21:36:17.253Z,1.20
2022-09-18T21:39:20.338Z,1.67
2022-09-18T21:42:23.913Z,2.10
2022-09-18T21:45:31.041Z,1.60
2022-09-18T21:48:34.838Z,3.80
2022-09-18T21:51:40.653Z,3.00
2022-09-18T21:54:43.787Z,2.23
2022-09-18T21:57:46.951Z,2.63
2022-09-18T22:00:51.440Z,2.37
2022-09-18T22:03:59.403Z,2.50
2022-09-18T22:07:04.055Z,3.27
2022-09-18T22:10:08.576Z,3.00
2022-09-18T22:13:11.719Z,2.77
2022-09-18T22:16:16.282Z,2.70
2022-09-18T22:19:19.731Z,2.60
2022-09-18T22:22:23.205Z,2.53
2022-09-18T22:25:26.275Z,2.87
2022-09-18T22:28:29.578Z,2.57
2022-09-18T22:31:34.573Z,2.70
2022-09-18T22:34:38.169Z,2.40
2022-09-18T22:37:41.294Z,2.40
2022-09-18T22:40:44.437Z,2.37
2022-09-18T22:43:47.724Z,1.97
2022-09-18T22:46:53.433Z,2.40
2022-09-18T22:49:56.611Z,2.23
2022-09-18T22:52:59.701Z,2.50
2022-09-18T22:56:04.789Z,2.20
2022-09-18T22:59:08.447Z,2.10
2022-09-18T23:02:13.049Z,1.57
2022-09-18T23:05:16.620Z,1.73
2022-09-18T23:08:19.723Z,1.77
2022-09-18T23:11:25.419Z,1.93
2022-09-18T23:14:31.235Z,1.90
2022-09-18T23:17:35.757Z,2.23
2022-09-18T23:20:38.818Z,1.90
2022-09-18T23:23:43.738Z,1.57
2022-09-18T23:26:49.052Z,2.27
2022-09-18T23:29:52.153Z,1.90
2022-09-18T23:32:56.590Z,2.13
2022-09-18T23:36:07.246Z,1.87
2022-09-18T23:39:14.526Z,1.63
2022-09-18T23:42:17.596Z,2.10
2022-09-18T23:45:20.894Z,2.63
2022-09-18T23:48:25.759Z,2.53
2022-09-18T23:51:30.169Z,2.50
2022-09-18T23:54:33.665Z,2.27
2022-09-18T23:57:37.045Z,2.27
